SVA933 OEJN-EHAM
Flight info
| Callsign | SVA933 |
|---|---|
| Flight time | N/A |
| Altitude | 40000 |
| Route | BOMOX M686 OTEMO T55 TANSA PEXAN BITLA MAVAR SIMBA GASKA MAPOX NORKU |
| Aircraft | A333/H-VGDW/C |
Departure
| Time | 2026-05-06 10:28 |
|---|---|
| Airport | King Abdulaziz International Airport (OEJN) |
Arrival
| Time | N/A |
|---|---|
| Airport | Amsterdam Airport Schiphol (EHAM) |
| Time | Latitude | Longitude | Altitude | Speed | Heading |
|---|---|---|---|---|---|
| 2026-05-06 10:13 | 21.65956 | 39.16089 | 40 ft | 0 kts | 251° |
| 2026-05-06 10:22 | 21.65961 | 39.16102 | 38 ft | 2 kts | 250° |
| 2026-05-06 10:23 | 21.65966 | 39.16119 | 39 ft | 2 kts | 251° |
| 2026-05-06 10:23 | 21.65971 | 39.16136 | 39 ft | 2 kts | 250° |
| 2026-05-06 10:23 | 21.65977 | 39.16152 | 38 ft | 2 kts | 250° |
| 2026-05-06 10:23 | 21.65982 | 39.16169 | 40 ft | 2 kts | 250° |
| 2026-05-06 10:24 | 21.65988 | 39.16186 | 40 ft | 2 kts | 250° |
| 2026-05-06 10:24 | 21.65993 | 39.16202 | 37 ft | 2 kts | 250° |
| 2026-05-06 10:24 | 21.65999 | 39.16219 | 40 ft | 2 kts | 272° |
| 2026-05-06 10:24 | 21.65990 | 39.16231 | 35 ft | 2 kts | 339° |
| 2026-05-06 10:25 | 21.65985 | 39.16233 | 36 ft | 0 kts | 340° |
| 2026-05-06 10:26 | 21.65991 | 39.16231 | 35 ft | 5 kts | 340° |
| 2026-05-06 10:26 | 21.66032 | 39.16229 | 39 ft | 8 kts | 19° |
| 2026-05-06 10:27 | 21.66074 | 39.16305 | 39 ft | 18 kts | 68° |
| 2026-05-06 10:27 | 21.66117 | 39.16431 | 38 ft | 16 kts | 68° |
| 2026-05-06 10:27 | 21.66190 | 39.16462 | 37 ft | 10 kts | 341° |
| 2026-05-06 10:27 | 21.66311 | 39.16412 | 37 ft | 30 kts | 341° |
| 2026-05-06 10:28 | 21.66679 | 39.16267 | 40 ft | 83 kts | 340° |
| 2026-05-06 10:28 | 21.67377 | 39.15993 | 35 ft | 129 kts | 340° |
| 2026-05-06 10:28 | 21.68323 | 39.15624 | 281 ft | 148 kts | 339° |
| 2026-05-06 10:28 | 21.69285 | 39.15258 | 888 ft | 148 kts | 337° |
| 2026-05-06 10:29 | 21.70241 | 39.14879 | 1539 ft | 143 kts | 338° |
| 2026-05-06 10:29 | 21.71201 | 39.14496 | 1905 ft | 155 kts | 339° |
| 2026-05-06 10:29 | 21.72271 | 39.14068 | 2044 ft | 178 kts | 341° |
| 2026-05-06 10:29 | 21.73503 | 39.13580 | 2285 ft | 199 kts | 341° |
| 2026-05-06 10:30 | 21.74897 | 39.13032 | 2399 ft | 227 kts | 341° |
| 2026-05-06 10:30 | 21.76447 | 39.12421 | 2689 ft | 248 kts | 340° |
| 2026-05-06 10:30 | 21.78117 | 39.11763 | 3115 ft | 258 kts | 341° |
| 2026-05-06 10:30 | 21.79829 | 39.11087 | 3640 ft | 265 kts | 340° |
| 2026-05-06 10:31 | 21.81555 | 39.10402 | 4214 ft | 270 kts | 340° |
| 2026-05-06 10:31 | 21.83342 | 39.09694 | 4760 ft | 276 kts | 340° |
| 2026-05-06 10:31 | 21.85170 | 39.08971 | 5331 ft | 282 kts | 340° |
| 2026-05-06 10:31 | 21.86999 | 39.08247 | 5965 ft | 284 kts | 340° |
| 2026-05-06 10:32 | 21.88869 | 39.07503 | 6579 ft | 289 kts | 338° |
| 2026-05-06 10:32 | 21.90751 | 39.06668 | 7163 ft | 294 kts | 336° |
| 2026-05-06 10:32 | 21.92641 | 39.05776 | 7752 ft | 300 kts | 334° |
| 2026-05-06 10:32 | 21.94573 | 39.04852 | 8368 ft | 306 kts | 334° |
| 2026-05-06 10:33 | 21.96526 | 39.03918 | 9097 ft | 307 kts | 333° |
| 2026-05-06 10:33 | 21.98508 | 39.02969 | 9770 ft | 312 kts | 334° |
| 2026-05-06 10:33 | 22.00512 | 39.02011 | 10383 ft | 319 kts | 334° |
| 2026-05-06 10:33 | 22.02572 | 39.01024 | 10644 ft | 338 kts | 333° |
| 2026-05-06 10:34 | 22.04785 | 38.99963 | 10876 ft | 356 kts | 334° |
| 2026-05-06 10:34 | 22.07106 | 38.98852 | 11078 ft | 374 kts | 333° |
| 2026-05-06 10:34 | 22.09532 | 38.97690 | 11386 ft | 385 kts | 334° |
| 2026-05-06 10:34 | 22.11999 | 38.96511 | 11953 ft | 389 kts | 334° |
| 2026-05-06 10:35 | 22.14493 | 38.95318 | 12507 ft | 392 kts | 333° |
| 2026-05-06 10:35 | 22.16973 | 38.94132 | 13064 ft | 396 kts | 333° |
| 2026-05-06 10:35 | 22.19511 | 38.92920 | 13624 ft | 399 kts | 333° |
| 2026-05-06 10:35 | 22.22066 | 38.91699 | 14127 ft | 402 kts | 333° |
| 2026-05-06 10:36 | 22.24570 | 38.90333 | 14643 ft | 402 kts | 323° |
| 2026-05-06 10:36 | 22.26638 | 38.88344 | 15149 ft | 396 kts | 304° |
| 2026-05-06 10:36 | 22.28139 | 38.85909 | 15675 ft | 394 kts | 297° |
| 2026-05-06 10:36 | 22.29511 | 38.83334 | 16191 ft | 396 kts | 295° |
| 2026-05-06 10:37 | 22.30874 | 38.80728 | 16720 ft | 398 kts | 295° |
| 2026-05-06 10:37 | 22.32244 | 38.78116 | 17234 ft | 400 kts | 296° |
| 2026-05-06 10:37 | 22.33628 | 38.75488 | 17749 ft | 403 kts | 296° |
| 2026-05-06 10:37 | 22.35006 | 38.72883 | 18228 ft | 405 kts | 296° |
| 2026-05-06 10:38 | 22.36409 | 38.70233 | 18651 ft | 408 kts | 296° |
| 2026-05-06 10:38 | 22.37823 | 38.67564 | 19084 ft | 409 kts | 296° |
| 2026-05-06 10:38 | 22.39243 | 38.64884 | 19524 ft | 411 kts | 296° |
| 2026-05-06 10:38 | 22.40662 | 38.62206 | 20015 ft | 411 kts | 296° |
| 2026-05-06 10:39 | 22.42086 | 38.59518 | 20423 ft | 413 kts | 296° |
| 2026-05-06 10:39 | 22.43520 | 38.56810 | 20832 ft | 415 kts | 296° |
| 2026-05-06 10:39 | 22.44940 | 38.54126 | 21240 ft | 417 kts | 296° |
| 2026-05-06 10:39 | 22.46386 | 38.51392 | 21654 ft | 419 kts | 296° |
| 2026-05-06 10:40 | 22.47842 | 38.48643 | 22068 ft | 421 kts | 296° |
| 2026-05-06 10:40 | 22.49471 | 38.45982 | 22484 ft | 427 kts | 304° |
| 2026-05-06 10:40 | 22.50776 | 38.44367 | 22741 ft | 432 kts | 310° |
| 2026-05-06 10:40 | 22.53757 | 38.41444 | 23262 ft | 438 kts | 315° |
| 2026-05-06 10:41 | 22.56127 | 38.39353 | 23621 ft | 441 kts | 317° |
| 2026-05-06 10:41 | 22.57730 | 38.37988 | 23824 ft | 442 kts | 317° |
| 2026-05-06 10:41 | 22.60162 | 38.35944 | 24150 ft | 444 kts | 317° |
| 2026-05-06 10:41 | 22.62608 | 38.33888 | 24483 ft | 445 kts | 317° |
| 2026-05-06 10:42 | 22.65051 | 38.31816 | 24809 ft | 446 kts | 316° |
| 2026-05-06 10:42 | 22.67495 | 38.29727 | 25139 ft | 447 kts | 316° |
| 2026-05-06 10:42 | 22.69943 | 38.27619 | 25462 ft | 449 kts | 316° |
| 2026-05-06 10:42 | 22.72358 | 38.25530 | 25791 ft | 450 kts | 316° |
| 2026-05-06 10:43 | 22.74816 | 38.23398 | 26082 ft | 452 kts | 315° |
| 2026-05-06 10:43 | 22.77278 | 38.21260 | 26390 ft | 453 kts | 315° |
| 2026-05-06 10:43 | 22.79714 | 38.19143 | 26691 ft | 454 kts | 315° |
| 2026-05-06 10:44 | 22.84672 | 38.14835 | 27292 ft | 457 kts | 315° |
| 2026-05-06 10:44 | 22.87166 | 38.12666 | 27595 ft | 459 kts | 315° |
| 2026-05-06 10:44 | 22.89663 | 38.10495 | 27871 ft | 460 kts | 314° |
| 2026-05-06 10:44 | 22.92138 | 38.08342 | 28154 ft | 462 kts | 314° |
| 2026-05-06 10:45 | 22.94655 | 38.06151 | 28431 ft | 463 kts | 314° |
| 2026-05-06 10:45 | 22.97170 | 38.03961 | 28715 ft | 464 kts | 314° |
| 2026-05-06 10:45 | 22.99696 | 38.01761 | 28979 ft | 466 kts | 314° |
| 2026-05-06 10:45 | 23.02225 | 37.99556 | 29232 ft | 467 kts | 314° |
| 2026-05-06 10:46 | 23.04765 | 37.97341 | 29491 ft | 468 kts | 314° |
| 2026-05-06 10:46 | 23.07317 | 37.95115 | 29768 ft | 470 kts | 314° |
| 2026-05-06 10:46 | 23.09876 | 37.92880 | 29955 ft | 472 kts | 314° |
| 2026-05-06 10:46 | 23.12413 | 37.90664 | 30153 ft | 474 kts | 314° |
| 2026-05-06 10:47 | 23.14988 | 37.88414 | 30357 ft | 475 kts | 314° |
| 2026-05-06 10:47 | 23.17565 | 37.86163 | 30619 ft | 474 kts | 313° |
| 2026-05-06 10:47 | 23.20131 | 37.83922 | 30919 ft | 472 kts | 313° |
| 2026-05-06 10:47 | 23.22693 | 37.81682 | 31211 ft | 471 kts | 313° |
| 2026-05-06 10:48 | 23.25247 | 37.79447 | 31496 ft | 471 kts | 313° |
| 2026-05-06 10:48 | 23.27769 | 37.77239 | 31769 ft | 470 kts | 313° |
| 2026-05-06 10:48 | 23.30314 | 37.75008 | 32068 ft | 469 kts | 313° |
| 2026-05-06 10:48 | 23.32861 | 37.72775 | 32330 ft | 468 kts | 313° |
| 2026-05-06 10:49 | 23.35403 | 37.70544 | 32616 ft | 468 kts | 313° |
| 2026-05-06 10:49 | 23.37904 | 37.68347 | 32871 ft | 468 kts | 312° |
| 2026-05-06 10:49 | 23.40438 | 37.66118 | 33173 ft | 467 kts | 312° |
| 2026-05-06 10:49 | 23.42972 | 37.63890 | 33417 ft | 467 kts | 312° |
| 2026-05-06 10:50 | 23.45503 | 37.61662 | 33692 ft | 466 kts | 312° |
| 2026-05-06 10:50 | 23.48025 | 37.59442 | 33960 ft | 466 kts | 312° |
| 2026-05-06 10:50 | 23.50548 | 37.57221 | 34181 ft | 465 kts | 311° |
| 2026-05-06 10:50 | 23.53027 | 37.55036 | 34400 ft | 464 kts | 311° |
| 2026-05-06 10:51 | 23.55539 | 37.52822 | 34634 ft | 463 kts | 311° |
| 2026-05-06 10:51 | 23.58045 | 37.50612 | 34866 ft | 462 kts | 311° |
| 2026-05-06 10:51 | 23.60540 | 37.48410 | 35089 ft | 461 kts | 311° |
| 2026-05-06 10:51 | 23.63036 | 37.46206 | 35336 ft | 460 kts | 311° |
| 2026-05-06 10:52 | 23.65523 | 37.44010 | 35568 ft | 459 kts | 311° |
| 2026-05-06 10:52 | 23.67973 | 37.41844 | 35779 ft | 458 kts | 311° |
| 2026-05-06 10:52 | 23.70453 | 37.39651 | 35977 ft | 458 kts | 311° |
| 2026-05-06 10:52 | 23.72927 | 37.37461 | 36189 ft | 457 kts | 311° |
| 2026-05-06 10:53 | 23.75402 | 37.35269 | 36400 ft | 456 kts | 311° |
| 2026-05-06 10:53 | 23.77840 | 37.33110 | 36609 ft | 455 kts | 311° |
| 2026-05-06 10:53 | 23.80303 | 37.30929 | 36788 ft | 455 kts | 310° |
| 2026-05-06 10:53 | 23.82758 | 37.28752 | 37001 ft | 454 kts | 310° |
| 2026-05-06 10:54 | 23.85211 | 37.26576 | 37174 ft | 454 kts | 310° |
| 2026-05-06 10:54 | 23.87666 | 37.24397 | 37360 ft | 453 kts | 310° |
| 2026-05-06 10:54 | 23.90116 | 37.22222 | 37568 ft | 452 kts | 310° |
| 2026-05-06 10:54 | 23.92527 | 37.20080 | 37770 ft | 451 kts | 310° |
| 2026-05-06 10:55 | 23.94962 | 37.17916 | 37945 ft | 450 kts | 310° |
| 2026-05-06 10:55 | 23.97394 | 37.15753 | 38094 ft | 450 kts | 310° |
| 2026-05-06 10:55 | 23.99827 | 37.13588 | 38245 ft | 450 kts | 310° |
| 2026-05-06 10:55 | 24.02257 | 37.11425 | 38422 ft | 449 kts | 310° |
| 2026-05-06 10:56 | 24.04681 | 37.09266 | 38557 ft | 449 kts | 310° |
| 2026-05-06 10:56 | 24.07030 | 37.07172 | 38686 ft | 448 kts | 310° |
| 2026-05-06 10:56 | 24.09298 | 37.05151 | 38819 ft | 448 kts | 310° |
| 2026-05-06 10:56 | 24.11716 | 37.02994 | 38934 ft | 448 kts | 310° |
| 2026-05-06 10:57 | 24.14133 | 37.00836 | 39033 ft | 448 kts | 310° |
| 2026-05-06 10:57 | 24.16526 | 36.98700 | 39153 ft | 448 kts | 310° |
| 2026-05-06 10:57 | 24.18950 | 36.96536 | 39248 ft | 448 kts | 310° |
| 2026-05-06 10:57 | 24.21371 | 36.94372 | 39357 ft | 448 kts | 310° |
| 2026-05-06 10:58 | 24.23753 | 36.92242 | 39474 ft | 447 kts | 310° |
| 2026-05-06 10:58 | 24.28590 | 36.87915 | 39672 ft | 447 kts | 310° |
| 2026-05-06 10:58 | 24.31000 | 36.85756 | 39777 ft | 447 kts | 310° |
| 2026-05-06 10:59 | 24.33377 | 36.83627 | 39861 ft | 446 kts | 310° |
| 2026-05-06 10:59 | 24.38194 | 36.79307 | 39922 ft | 447 kts | 310° |
| 2026-05-06 11:00 | 24.43008 | 36.74987 | 39925 ft | 446 kts | 310° |
| 2026-05-06 11:00 | 24.47811 | 36.70671 | 39931 ft | 445 kts | 310° |
| 2026-05-06 11:01 | 24.52589 | 36.66374 | 39931 ft | 445 kts | 310° |
| 2026-05-06 11:01 | 24.57386 | 36.62050 | 39932 ft | 444 kts | 309° |
| 2026-05-06 11:02 | 24.61439 | 36.57202 | 39932 ft | 424 kts | 295° |
| 2026-05-06 11:02 | 24.64024 | 36.51537 | 39937 ft | 409 kts | 283° |
| 2026-05-06 11:03 | 24.65922 | 36.45677 | 39942 ft | 408 kts | 281° |
| 2026-05-06 11:03 | 24.67718 | 36.39736 | 39945 ft | 408 kts | 281° |
| 2026-05-06 11:04 | 24.69521 | 36.33804 | 39941 ft | 409 kts | 281° |
| 2026-05-06 11:04 | 24.71336 | 36.27912 | 39942 ft | 409 kts | 282° |
| 2026-05-06 11:05 | 24.73171 | 36.21975 | 39951 ft | 410 kts | 282° |
| 2026-05-06 11:05 | 24.75013 | 36.16005 | 39946 ft | 412 kts | 282° |
| 2026-05-06 11:06 | 24.76847 | 36.10053 | 39943 ft | 413 kts | 282° |
| 2026-05-06 11:06 | 24.78687 | 36.04070 | 39947 ft | 412 kts | 282° |
| 2026-05-06 11:07 | 24.80527 | 35.98079 | 39946 ft | 412 kts | 282° |
| 2026-05-06 11:07 | 24.82351 | 35.92127 | 39949 ft | 412 kts | 282° |
| 2026-05-06 11:08 | 24.84184 | 35.86137 | 39948 ft | 412 kts | 282° |
| 2026-05-06 11:08 | 24.86016 | 35.80141 | 39952 ft | 412 kts | 282° |
| 2026-05-06 11:09 | 24.87832 | 35.74186 | 39970 ft | 412 kts | 282° |
| 2026-05-06 11:09 | 24.89665 | 35.68165 | 39957 ft | 413 kts | 282° |
| 2026-05-06 11:10 | 24.91485 | 35.62181 | 39955 ft | 414 kts | 282° |
| 2026-05-06 11:10 | 24.93316 | 35.56151 | 39955 ft | 414 kts | 282° |
| 2026-05-06 11:11 | 24.95129 | 35.50170 | 39959 ft | 414 kts | 282° |
| 2026-05-06 11:11 | 24.96953 | 35.44137 | 39958 ft | 415 kts | 282° |
| 2026-05-06 11:12 | 24.98779 | 35.38093 | 39960 ft | 415 kts | 282° |
| 2026-05-06 11:12 | 25.00592 | 35.32084 | 39964 ft | 415 kts | 282° |
| 2026-05-06 11:13 | 25.02413 | 35.26035 | 39960 ft | 415 kts | 282° |
| 2026-05-06 11:13 | 25.04222 | 35.20017 | 39965 ft | 415 kts | 283° |
| 2026-05-06 11:14 | 25.06587 | 35.14135 | 39967 ft | 426 kts | 295° |
| 2026-05-06 11:14 | 25.10367 | 35.08974 | 39969 ft | 437 kts | 306° |
| 2026-05-06 11:15 | 25.14666 | 35.04225 | 40004 ft | 440 kts | 308° |
| 2026-05-06 11:15 | 25.19084 | 34.99508 | 39967 ft | 440 kts | 308° |
| 2026-05-06 11:16 | 25.23477 | 34.94789 | 39972 ft | 439 kts | 308° |
| 2026-05-06 11:16 | 25.27817 | 34.90079 | 39974 ft | 439 kts | 308° |
| 2026-05-06 11:17 | 25.32168 | 34.85334 | 39971 ft | 439 kts | 308° |
| 2026-05-06 11:17 | 25.36492 | 34.80613 | 39982 ft | 439 kts | 308° |
| 2026-05-06 11:18 | 25.40842 | 34.75861 | 39983 ft | 439 kts | 308° |
| 2026-05-06 11:18 | 25.45166 | 34.71132 | 39991 ft | 438 kts | 308° |
| 2026-05-06 11:19 | 25.49502 | 34.66387 | 39993 ft | 437 kts | 308° |
| 2026-05-06 11:19 | 25.53841 | 34.61633 | 39994 ft | 437 kts | 308° |
| 2026-05-06 11:20 | 25.58136 | 34.56905 | 39993 ft | 436 kts | 307° |
| 2026-05-06 11:20 | 25.62173 | 34.51919 | 39993 ft | 432 kts | 303° |
| 2026-05-06 11:21 | 25.66016 | 34.46838 | 40004 ft | 432 kts | 303° |
| 2026-05-06 11:21 | 25.69878 | 34.41730 | 39993 ft | 431 kts | 303° |
| 2026-05-06 11:22 | 25.73743 | 34.36671 | 39995 ft | 431 kts | 303° |
| 2026-05-06 11:22 | 25.77644 | 34.31588 | 39996 ft | 432 kts | 303° |
| 2026-05-06 11:23 | 25.81547 | 34.26500 | 39996 ft | 432 kts | 303° |
| 2026-05-06 11:23 | 25.85421 | 34.21443 | 40011 ft | 432 kts | 304° |
| 2026-05-06 11:24 | 25.89318 | 34.16350 | 40002 ft | 431 kts | 303° |
| 2026-05-06 11:24 | 25.93183 | 34.11293 | 39986 ft | 431 kts | 304° |
| 2026-05-06 11:25 | 25.97073 | 34.06196 | 39982 ft | 431 kts | 304° |
| 2026-05-06 11:25 | 26.00937 | 34.01130 | 39983 ft | 431 kts | 304° |
| 2026-05-06 11:26 | 26.04824 | 33.96027 | 39979 ft | 431 kts | 304° |
| 2026-05-06 11:26 | 26.08673 | 33.90969 | 39988 ft | 430 kts | 304° |
| 2026-05-06 11:27 | 26.12543 | 33.85879 | 39990 ft | 430 kts | 304° |
| 2026-05-06 11:27 | 26.16408 | 33.80787 | 39983 ft | 430 kts | 304° |
| 2026-05-06 11:28 | 26.20250 | 33.75721 | 39984 ft | 430 kts | 304° |
| 2026-05-06 11:28 | 26.24113 | 33.70622 | 39987 ft | 430 kts | 304° |
| 2026-05-06 11:29 | 26.27950 | 33.65550 | 39989 ft | 429 kts | 304° |
| 2026-05-06 11:29 | 26.31152 | 33.61314 | 39986 ft | 429 kts | 304° |
| 2026-05-06 11:30 | 26.35631 | 33.55383 | 39986 ft | 428 kts | 303° |
| 2026-05-06 11:30 | 26.38824 | 33.51150 | 39988 ft | 428 kts | 304° |
| 2026-05-06 11:31 | 26.42669 | 33.46045 | 39987 ft | 429 kts | 304° |
| 2026-05-06 11:31 | 26.46491 | 33.40969 | 39989 ft | 429 kts | 304° |
| 2026-05-06 11:32 | 26.50331 | 33.35861 | 39994 ft | 428 kts | 303° |
| 2026-05-06 11:32 | 26.54145 | 33.30783 | 39990 ft | 429 kts | 303° |
| 2026-05-06 11:33 | 26.57986 | 33.25662 | 39983 ft | 429 kts | 303° |
| 2026-05-06 11:33 | 26.61800 | 33.20572 | 39985 ft | 429 kts | 303° |
| 2026-05-06 11:34 | 26.65633 | 33.15452 | 39997 ft | 428 kts | 304° |
| 2026-05-06 11:34 | 26.69432 | 33.10369 | 39985 ft | 428 kts | 304° |
| 2026-05-06 11:35 | 26.73250 | 33.05256 | 39985 ft | 427 kts | 304° |
| 2026-05-06 11:35 | 26.77062 | 33.00146 | 39982 ft | 427 kts | 304° |
| 2026-05-06 11:36 | 26.80877 | 32.95024 | 39980 ft | 427 kts | 304° |
| 2026-05-06 11:36 | 26.84665 | 32.89934 | 39980 ft | 427 kts | 303° |
| 2026-05-06 11:37 | 26.88473 | 32.84811 | 39980 ft | 427 kts | 304° |
| 2026-05-06 11:37 | 26.92252 | 32.79722 | 39980 ft | 426 kts | 304° |
| 2026-05-06 11:38 | 26.96055 | 32.74593 | 39978 ft | 427 kts | 304° |
| 2026-05-06 11:38 | 26.99847 | 32.69474 | 39984 ft | 426 kts | 304° |
| 2026-05-06 11:39 | 27.03618 | 32.64376 | 39984 ft | 426 kts | 304° |
| 2026-05-06 11:39 | 27.07411 | 32.59244 | 40021 ft | 426 kts | 304° |
| 2026-05-06 11:40 | 27.11181 | 32.54137 | 39987 ft | 426 kts | 304° |
| 2026-05-06 11:40 | 27.14972 | 32.48995 | 39989 ft | 426 kts | 304° |
| 2026-05-06 11:41 | 27.18752 | 32.43861 | 39993 ft | 426 kts | 304° |
| 2026-05-06 11:41 | 27.22509 | 32.38754 | 39996 ft | 426 kts | 304° |
| 2026-05-06 11:42 | 27.26288 | 32.33610 | 39995 ft | 426 kts | 304° |
| 2026-05-06 11:42 | 27.30055 | 32.28466 | 39996 ft | 425 kts | 303° |
| 2026-05-06 11:43 | 27.33684 | 32.23269 | 40001 ft | 424 kts | 302° |
| 2026-05-06 11:43 | 27.37259 | 32.18018 | 40017 ft | 424 kts | 302° |
| 2026-05-06 11:44 | 27.42649 | 32.10103 | 40010 ft | 424 kts | 302° |
| 2026-05-06 11:44 | 27.46230 | 32.04861 | 40022 ft | 423 kts | 303° |
| 2026-05-06 11:45 | 27.49831 | 31.99589 | 40041 ft | 423 kts | 303° |
| 2026-05-06 11:45 | 27.53403 | 31.94353 | 40059 ft | 423 kts | 303° |
| 2026-05-06 11:46 | 27.56991 | 31.89086 | 40057 ft | 423 kts | 303° |
| 2026-05-06 11:46 | 27.60554 | 31.83849 | 40071 ft | 423 kts | 303° |
| 2026-05-06 11:47 | 27.64140 | 31.78572 | 40083 ft | 423 kts | 303° |
| 2026-05-06 11:47 | 27.67719 | 31.73300 | 40093 ft | 422 kts | 303° |
| 2026-05-06 11:48 | 27.71261 | 31.68075 | 40094 ft | 422 kts | 303° |
| 2026-05-06 11:48 | 27.74829 | 31.62805 | 40099 ft | 422 kts | 303° |
| 2026-05-06 11:49 | 27.78391 | 31.57538 | 40100 ft | 422 kts | 303° |
| 2026-05-06 11:49 | 27.81952 | 31.52266 | 40099 ft | 422 kts | 303° |
| 2026-05-06 11:50 | 27.85511 | 31.46991 | 40105 ft | 421 kts | 303° |
| 2026-05-06 11:50 | 27.89043 | 31.41749 | 40118 ft | 421 kts | 303° |
| 2026-05-06 11:51 | 27.92589 | 31.36480 | 40114 ft | 421 kts | 303° |
| 2026-05-06 11:51 | 27.96140 | 31.31197 | 40110 ft | 420 kts | 303° |
| 2026-05-06 11:52 | 27.99662 | 31.25950 | 40104 ft | 421 kts | 303° |
| 2026-05-06 11:52 | 28.03185 | 31.20695 | 40111 ft | 420 kts | 303° |
| 2026-05-06 11:53 | 28.06717 | 31.15418 | 40113 ft | 419 kts | 302° |
| 2026-05-06 11:53 | 28.10058 | 31.10013 | 40117 ft | 418 kts | 300° |
| 2026-05-06 11:54 | 28.13250 | 31.04544 | 40109 ft | 418 kts | 299° |
| 2026-05-06 11:54 | 28.16455 | 30.99038 | 40108 ft | 418 kts | 299° |
| 2026-05-06 11:55 | 28.19676 | 30.93543 | 40096 ft | 418 kts | 300° |
| 2026-05-06 11:55 | 28.22887 | 30.88084 | 40107 ft | 417 kts | 300° |
| 2026-05-06 11:56 | 28.26117 | 30.82590 | 40099 ft | 417 kts | 300° |
| 2026-05-06 11:56 | 28.29321 | 30.77131 | 40102 ft | 417 kts | 300° |
| 2026-05-06 11:57 | 28.32544 | 30.71631 | 40103 ft | 417 kts | 300° |
| 2026-05-06 11:57 | 28.35743 | 30.66166 | 40105 ft | 417 kts | 300° |
| 2026-05-06 11:58 | 28.38959 | 30.60664 | 40102 ft | 417 kts | 300° |
| 2026-05-06 11:58 | 28.42174 | 30.55156 | 40102 ft | 417 kts | 300° |
| 2026-05-06 11:59 | 28.45362 | 30.49687 | 40102 ft | 417 kts | 299° |
| 2026-05-06 11:59 | 28.48565 | 30.44187 | 40100 ft | 417 kts | 299° |
| 2026-05-06 12:00 | 28.51770 | 30.38675 | 40111 ft | 417 kts | 299° |
| 2026-05-06 12:00 | 28.54970 | 30.33164 | 40105 ft | 417 kts | 299° |
| 2026-05-06 12:01 | 28.58169 | 30.27649 | 40102 ft | 417 kts | 299° |
| 2026-05-06 12:01 | 28.61348 | 30.22161 | 40102 ft | 417 kts | 299° |
| 2026-05-06 12:02 | 28.64546 | 30.16631 | 40100 ft | 417 kts | 299° |
| 2026-05-06 12:02 | 28.67717 | 30.11143 | 40102 ft | 417 kts | 299° |
| 2026-05-06 12:03 | 28.70909 | 30.05610 | 40094 ft | 416 kts | 299° |
| 2026-05-06 12:03 | 28.74071 | 30.00123 | 40094 ft | 416 kts | 299° |
| 2026-05-06 12:04 | 28.77252 | 29.94596 | 40095 ft | 416 kts | 299° |
| 2026-05-06 12:04 | 28.80410 | 29.89100 | 40086 ft | 416 kts | 299° |
| 2026-05-06 12:05 | 28.83585 | 29.83568 | 40089 ft | 416 kts | 299° |
| 2026-05-06 12:05 | 28.86755 | 29.78037 | 40084 ft | 416 kts | 299° |
| 2026-05-06 12:06 | 28.89919 | 29.72511 | 40085 ft | 415 kts | 299° |
| 2026-05-06 12:06 | 28.93057 | 29.67021 | 40083 ft | 415 kts | 299° |
| 2026-05-06 12:07 | 28.96218 | 29.61483 | 40083 ft | 415 kts | 299° |
| 2026-05-06 12:07 | 28.99377 | 29.55943 | 40083 ft | 415 kts | 299° |
| 2026-05-06 12:08 | 29.02508 | 29.50444 | 40078 ft | 415 kts | 299° |
| 2026-05-06 12:08 | 29.05665 | 29.44893 | 40078 ft | 415 kts | 299° |
| 2026-05-06 12:09 | 29.08811 | 29.39353 | 40080 ft | 415 kts | 299° |
| 2026-05-06 12:09 | 29.12470 | 29.34209 | 40080 ft | 422 kts | 312° |
| 2026-05-06 12:10 | 29.17301 | 29.30338 | 40101 ft | 432 kts | 326° |
| 2026-05-06 12:10 | 29.22713 | 29.27226 | 40084 ft | 436 kts | 328° |
| 2026-05-06 12:11 | 29.28213 | 29.24261 | 40080 ft | 436 kts | 328° |
| 2026-05-06 12:11 | 29.33674 | 29.21305 | 40083 ft | 436 kts | 328° |
| 2026-05-06 12:12 | 29.39165 | 29.18290 | 40080 ft | 436 kts | 328° |
| 2026-05-06 12:12 | 29.44594 | 29.15288 | 40086 ft | 436 kts | 328° |
| 2026-05-06 12:13 | 29.50062 | 29.12259 | 40088 ft | 436 kts | 328° |
| 2026-05-06 12:13 | 29.55547 | 29.09217 | 40088 ft | 436 kts | 328° |
| 2026-05-06 12:14 | 29.60992 | 29.06196 | 40083 ft | 436 kts | 328° |
| 2026-05-06 12:14 | 29.66474 | 29.03152 | 40085 ft | 436 kts | 328° |
| 2026-05-06 12:15 | 29.71919 | 29.00123 | 40091 ft | 436 kts | 328° |
| 2026-05-06 12:15 | 29.77363 | 28.97092 | 40091 ft | 436 kts | 328° |
| 2026-05-06 12:16 | 29.82834 | 28.94042 | 40088 ft | 437 kts | 328° |
| 2026-05-06 12:16 | 29.88314 | 28.90982 | 40085 ft | 437 kts | 328° |
| 2026-05-06 12:17 | 29.93795 | 28.87920 | 40088 ft | 437 kts | 328° |
| 2026-05-06 12:17 | 29.99240 | 28.84873 | 40086 ft | 437 kts | 328° |
| 2026-05-06 12:18 | 30.04724 | 28.81801 | 40086 ft | 437 kts | 328° |
| 2026-05-06 12:18 | 30.10167 | 28.78748 | 40090 ft | 437 kts | 328° |
| 2026-05-06 12:19 | 30.15646 | 28.75670 | 40090 ft | 437 kts | 328° |
| 2026-05-06 12:19 | 30.21102 | 28.72602 | 40092 ft | 437 kts | 328° |
| 2026-05-06 12:20 | 30.25659 | 28.70036 | 40089 ft | 437 kts | 328° |
| 2026-05-06 12:20 | 30.31140 | 28.66947 | 40089 ft | 437 kts | 328° |
| 2026-05-06 12:21 | 30.36588 | 28.63873 | 40094 ft | 437 kts | 328° |
| 2026-05-06 12:21 | 30.42074 | 28.60773 | 40094 ft | 438 kts | 328° |
| 2026-05-06 12:22 | 30.47563 | 28.57668 | 40099 ft | 438 kts | 328° |
| 2026-05-06 12:22 | 30.53014 | 28.54580 | 40099 ft | 438 kts | 328° |
| 2026-05-06 12:23 | 30.58501 | 28.51468 | 40104 ft | 438 kts | 328° |
| 2026-05-06 12:23 | 30.63970 | 28.48361 | 40112 ft | 441 kts | 328° |
| 2026-05-06 12:24 | 30.69491 | 28.45221 | 40118 ft | 442 kts | 328° |
| 2026-05-06 12:24 | 30.74990 | 28.42091 | 40124 ft | 441 kts | 328° |
| 2026-05-06 12:25 | 30.80521 | 28.38939 | 40128 ft | 441 kts | 328° |
| 2026-05-06 12:25 | 30.86042 | 28.35788 | 40135 ft | 441 kts | 328° |
| 2026-05-06 12:26 | 30.91521 | 28.32656 | 40137 ft | 441 kts | 328° |
| 2026-05-06 12:26 | 30.97032 | 28.29503 | 40118 ft | 441 kts | 328° |
| 2026-05-06 12:27 | 31.02549 | 28.26342 | 40123 ft | 441 kts | 328° |
| 2026-05-06 12:27 | 31.08061 | 28.23179 | 40124 ft | 441 kts | 328° |
| 2026-05-06 12:28 | 31.13538 | 28.20032 | 40124 ft | 441 kts | 328° |
| 2026-05-06 12:28 | 31.19056 | 28.16858 | 40151 ft | 441 kts | 328° |
| 2026-05-06 12:29 | 31.24533 | 28.13704 | 40127 ft | 440 kts | 328° |
| 2026-05-06 12:29 | 31.30031 | 28.10533 | 40127 ft | 440 kts | 328° |
| 2026-05-06 12:30 | 31.35530 | 28.07357 | 40132 ft | 440 kts | 328° |
| 2026-05-06 12:30 | 31.40984 | 28.04202 | 40133 ft | 440 kts | 328° |
| 2026-05-06 12:31 | 31.46481 | 28.01020 | 40130 ft | 440 kts | 328° |
| 2026-05-06 12:31 | 31.52112 | 27.98108 | 40126 ft | 443 kts | 333° |
| 2026-05-06 12:32 | 31.57815 | 27.95472 | 40129 ft | 443 kts | 333° |
| 2026-05-06 12:32 | 31.63581 | 27.92861 | 40124 ft | 443 kts | 333° |
| 2026-05-06 12:33 | 31.69350 | 27.90247 | 40121 ft | 443 kts | 333° |
| 2026-05-06 12:33 | 31.75081 | 27.87639 | 40144 ft | 443 kts | 334° |
| 2026-05-06 12:34 | 31.80836 | 27.85013 | 40121 ft | 442 kts | 333° |
| 2026-05-06 12:34 | 31.86555 | 27.82400 | 40125 ft | 442 kts | 333° |
| 2026-05-06 12:35 | 31.92297 | 27.79770 | 40121 ft | 442 kts | 333° |
| 2026-05-06 12:35 | 31.98043 | 27.77131 | 40119 ft | 442 kts | 333° |
| 2026-05-06 12:36 | 32.03746 | 27.74508 | 40127 ft | 442 kts | 333° |
| 2026-05-06 12:36 | 32.09483 | 27.71866 | 40119 ft | 442 kts | 333° |
| 2026-05-06 12:37 | 32.15221 | 27.69220 | 40113 ft | 442 kts | 333° |
| 2026-05-06 12:37 | 32.20924 | 27.66587 | 40116 ft | 441 kts | 333° |
| 2026-05-06 12:38 | 32.26661 | 27.63934 | 40114 ft | 442 kts | 333° |
| 2026-05-06 12:38 | 32.32367 | 27.61292 | 40114 ft | 442 kts | 334° |
| 2026-05-06 12:39 | 32.38062 | 27.58648 | 40116 ft | 441 kts | 334° |
| 2026-05-06 12:39 | 32.43780 | 27.55989 | 40116 ft | 441 kts | 333° |
| 2026-05-06 12:40 | 32.49502 | 27.53323 | 40113 ft | 441 kts | 333° |
| 2026-05-06 12:40 | 32.55233 | 27.50651 | 40113 ft | 441 kts | 333° |
| 2026-05-06 12:41 | 32.60919 | 27.47997 | 40111 ft | 441 kts | 334° |
| 2026-05-06 12:41 | 32.66632 | 27.45326 | 40116 ft | 440 kts | 334° |
| 2026-05-06 12:42 | 32.72345 | 27.42650 | 40113 ft | 441 kts | 334° |
| 2026-05-06 12:42 | 32.78020 | 27.39981 | 40110 ft | 441 kts | 334° |
| 2026-05-06 12:43 | 32.83734 | 27.37287 | 40110 ft | 441 kts | 334° |
| 2026-05-06 12:43 | 32.89443 | 27.34593 | 40110 ft | 441 kts | 334° |
| 2026-05-06 12:44 | 32.95109 | 27.31915 | 40110 ft | 441 kts | 334° |
| 2026-05-06 12:44 | 33.00817 | 27.29215 | 40110 ft | 441 kts | 334° |
| 2026-05-06 12:45 | 33.06537 | 27.26505 | 40108 ft | 441 kts | 333° |
| 2026-05-06 12:46 | 33.15065 | 27.22457 | 40105 ft | 440 kts | 334° |
| 2026-05-06 12:46 | 33.20729 | 27.19765 | 40105 ft | 439 kts | 334° |
| 2026-05-06 12:47 | 33.26419 | 27.17056 | 40108 ft | 439 kts | 334° |
| 2026-05-06 12:47 | 33.32113 | 27.14340 | 40105 ft | 440 kts | 334° |
| 2026-05-06 12:48 | 33.37770 | 27.11639 | 40111 ft | 440 kts | 334° |
| 2026-05-06 12:48 | 33.43465 | 27.08917 | 40102 ft | 439 kts | 334° |
| 2026-05-06 12:49 | 33.49117 | 27.06211 | 40106 ft | 439 kts | 334° |
| 2026-05-06 12:49 | 33.54810 | 27.03481 | 40102 ft | 439 kts | 334° |
| 2026-05-06 12:50 | 33.60447 | 27.00774 | 40102 ft | 439 kts | 334° |
| 2026-05-06 12:50 | 33.66127 | 26.98043 | 40106 ft | 439 kts | 334° |
| 2026-05-06 12:51 | 33.71762 | 26.95330 | 40103 ft | 438 kts | 334° |
| 2026-05-06 12:51 | 33.77423 | 26.92600 | 40102 ft | 438 kts | 334° |
| 2026-05-06 12:52 | 33.83085 | 26.89865 | 40102 ft | 438 kts | 334° |
| 2026-05-06 12:52 | 33.88709 | 26.87146 | 40102 ft | 438 kts | 334° |
| 2026-05-06 12:53 | 33.94368 | 26.84405 | 40102 ft | 438 kts | 334° |
| 2026-05-06 12:53 | 34.00017 | 26.81648 | 40099 ft | 437 kts | 333° |
| 2026-05-06 12:54 | 34.05525 | 26.78556 | 40102 ft | 435 kts | 330° |
| 2026-05-06 12:54 | 34.10923 | 26.75307 | 40100 ft | 435 kts | 329° |
| 2026-05-06 12:55 | 34.16365 | 26.72034 | 40100 ft | 435 kts | 330° |
| 2026-05-06 12:55 | 34.21772 | 26.68818 | 40095 ft | 435 kts | 330° |
| 2026-05-06 12:56 | 34.27221 | 26.65590 | 40096 ft | 435 kts | 330° |
| 2026-05-06 12:56 | 34.32621 | 26.62388 | 40095 ft | 434 kts | 330° |
| 2026-05-06 12:57 | 34.38063 | 26.59156 | 40096 ft | 434 kts | 330° |
| 2026-05-06 12:57 | 34.43495 | 26.55924 | 40095 ft | 435 kts | 330° |
| 2026-05-06 12:58 | 34.48903 | 26.52700 | 40100 ft | 435 kts | 330° |
| 2026-05-06 12:58 | 34.54346 | 26.49453 | 40100 ft | 435 kts | 330° |
| 2026-05-06 12:59 | 34.59752 | 26.46222 | 40096 ft | 435 kts | 330° |
| 2026-05-06 12:59 | 34.65193 | 26.42965 | 40095 ft | 435 kts | 330° |
| 2026-05-06 13:00 | 34.70594 | 26.39728 | 40096 ft | 435 kts | 330° |
| 2026-05-06 13:00 | 34.76033 | 26.36463 | 40104 ft | 434 kts | 330° |
| 2026-05-06 13:01 | 34.81418 | 26.33226 | 40101 ft | 433 kts | 330° |
| 2026-05-06 13:01 | 34.86838 | 26.29963 | 40100 ft | 433 kts | 330° |
| 2026-05-06 13:02 | 34.92260 | 26.26693 | 40102 ft | 434 kts | 330° |
| 2026-05-06 13:02 | 34.97645 | 26.23442 | 40103 ft | 434 kts | 330° |
| 2026-05-06 13:03 | 35.03069 | 26.20161 | 40105 ft | 434 kts | 330° |
| 2026-05-06 13:03 | 35.08482 | 26.16884 | 40102 ft | 433 kts | 330° |
| 2026-05-06 13:04 | 35.13852 | 26.13626 | 40103 ft | 433 kts | 330° |
| 2026-05-06 13:04 | 35.19267 | 26.10337 | 40101 ft | 434 kts | 330° |
| 2026-05-06 13:05 | 35.24647 | 26.07064 | 40119 ft | 434 kts | 330° |
| 2026-05-06 13:05 | 35.30054 | 26.03770 | 40100 ft | 433 kts | 330° |
| 2026-05-06 13:06 | 35.35444 | 26.00481 | 40101 ft | 432 kts | 330° |
| 2026-05-06 13:06 | 35.40837 | 25.97186 | 40102 ft | 432 kts | 330° |
| 2026-05-06 13:07 | 35.46190 | 25.93909 | 40093 ft | 433 kts | 330° |
| 2026-05-06 13:07 | 35.51603 | 25.90590 | 40096 ft | 434 kts | 330° |
| 2026-05-06 13:08 | 35.57011 | 25.87271 | 40097 ft | 434 kts | 330° |
| 2026-05-06 13:08 | 35.62388 | 25.83966 | 40097 ft | 434 kts | 330° |
| 2026-05-06 13:09 | 35.66887 | 25.81196 | 40093 ft | 434 kts | 330° |
| 2026-05-06 13:09 | 35.73179 | 25.77317 | 40094 ft | 434 kts | 330° |
| 2026-05-06 13:10 | 35.77682 | 25.74536 | 40111 ft | 434 kts | 330° |
| 2026-05-06 13:10 | 35.83077 | 25.71200 | 40097 ft | 433 kts | 330° |
| 2026-05-06 13:11 | 35.88467 | 25.67862 | 40096 ft | 432 kts | 330° |
| 2026-05-06 13:11 | 35.93820 | 25.64541 | 40094 ft | 432 kts | 330° |
| 2026-05-06 13:12 | 35.99217 | 25.61188 | 40089 ft | 433 kts | 330° |
| 2026-05-06 13:12 | 36.04590 | 25.57845 | 40105 ft | 434 kts | 330° |
| 2026-05-06 13:13 | 36.09984 | 25.54484 | 40091 ft | 433 kts | 330° |
| 2026-05-06 13:13 | 36.15362 | 25.51128 | 40091 ft | 432 kts | 330° |
| 2026-05-06 13:14 | 36.20715 | 25.47782 | 40092 ft | 432 kts | 330° |
| 2026-05-06 13:14 | 36.26066 | 25.44432 | 40100 ft | 432 kts | 330° |
| 2026-05-06 13:15 | 36.31446 | 25.41059 | 40109 ft | 432 kts | 330° |
| 2026-05-06 13:15 | 36.36818 | 25.37685 | 40109 ft | 431 kts | 330° |
| 2026-05-06 13:16 | 36.42150 | 25.34331 | 40093 ft | 431 kts | 330° |
| 2026-05-06 13:16 | 36.47505 | 25.30958 | 40078 ft | 432 kts | 330° |
| 2026-05-06 13:17 | 36.52848 | 25.27587 | 40081 ft | 433 kts | 330° |
| 2026-05-06 13:17 | 36.58227 | 25.24187 | 40083 ft | 433 kts | 330° |
| 2026-05-06 13:18 | 36.63599 | 25.20788 | 40086 ft | 432 kts | 330° |
| 2026-05-06 13:18 | 36.68858 | 25.17178 | 40089 ft | 430 kts | 325° |
| 2026-05-06 13:19 | 36.73860 | 25.13069 | 40090 ft | 430 kts | 323° |
| 2026-05-06 13:19 | 36.78782 | 25.08888 | 40094 ft | 430 kts | 323° |
| 2026-05-06 13:20 | 36.83715 | 25.04669 | 40108 ft | 430 kts | 323° |
| 2026-05-06 13:20 | 36.88653 | 25.00449 | 40089 ft | 429 kts | 323° |
| 2026-05-06 13:21 | 36.93563 | 24.96255 | 40096 ft | 430 kts | 323° |
| 2026-05-06 13:21 | 36.98510 | 24.92025 | 40097 ft | 430 kts | 323° |
| 2026-05-06 13:22 | 37.03459 | 24.87788 | 40094 ft | 430 kts | 323° |
| 2026-05-06 13:22 | 37.08371 | 24.83575 | 40087 ft | 430 kts | 323° |
| 2026-05-06 13:23 | 37.13326 | 24.79318 | 40085 ft | 430 kts | 323° |
| 2026-05-06 13:23 | 37.18231 | 24.75097 | 40080 ft | 429 kts | 323° |
| 2026-05-06 13:24 | 37.23167 | 24.70843 | 40081 ft | 429 kts | 323° |
| 2026-05-06 13:24 | 37.28101 | 24.66583 | 40086 ft | 429 kts | 323° |
| 2026-05-06 13:25 | 37.33006 | 24.62341 | 40087 ft | 429 kts | 323° |
| 2026-05-06 13:25 | 37.37930 | 24.58076 | 40094 ft | 429 kts | 323° |
| 2026-05-06 13:26 | 37.42850 | 24.53808 | 40079 ft | 429 kts | 323° |
| 2026-05-06 13:26 | 37.47763 | 24.49539 | 40072 ft | 429 kts | 323° |
| 2026-05-06 13:27 | 37.52638 | 24.45296 | 40071 ft | 429 kts | 323° |
| 2026-05-06 13:27 | 37.57553 | 24.41011 | 40072 ft | 429 kts | 323° |
| 2026-05-06 13:28 | 37.62468 | 24.36720 | 40065 ft | 429 kts | 323° |
| 2026-05-06 13:28 | 37.67356 | 24.32445 | 40072 ft | 430 kts | 323° |
| 2026-05-06 13:29 | 37.72280 | 24.28131 | 40071 ft | 430 kts | 323° |
| 2026-05-06 13:29 | 37.77167 | 24.23843 | 40069 ft | 430 kts | 323° |
| 2026-05-06 13:30 | 37.82085 | 24.19520 | 40071 ft | 430 kts | 323° |
| 2026-05-06 13:30 | 37.86992 | 24.15199 | 40074 ft | 430 kts | 323° |
| 2026-05-06 13:31 | 37.91913 | 24.10860 | 40086 ft | 430 kts | 323° |
| 2026-05-06 13:31 | 37.96791 | 24.06551 | 40065 ft | 430 kts | 323° |
| 2026-05-06 13:32 | 38.01701 | 24.02206 | 40061 ft | 431 kts | 323° |
| 2026-05-06 13:32 | 38.06598 | 23.97866 | 40053 ft | 431 kts | 323° |
| 2026-05-06 13:33 | 38.11521 | 23.93498 | 40058 ft | 431 kts | 323° |
| 2026-05-06 13:33 | 38.16412 | 23.89149 | 40054 ft | 431 kts | 323° |
| 2026-05-06 13:34 | 38.21330 | 23.84768 | 40049 ft | 431 kts | 323° |
| 2026-05-06 13:34 | 38.26246 | 23.80381 | 40050 ft | 431 kts | 323° |
| 2026-05-06 13:35 | 38.31124 | 23.76021 | 40052 ft | 431 kts | 323° |
| 2026-05-06 13:35 | 38.36043 | 23.71617 | 40048 ft | 432 kts | 323° |
| 2026-05-06 13:36 | 38.40970 | 23.67199 | 40048 ft | 433 kts | 323° |
| 2026-05-06 13:36 | 38.45873 | 23.62795 | 40051 ft | 433 kts | 323° |
| 2026-05-06 13:37 | 38.50805 | 23.58357 | 40046 ft | 433 kts | 323° |
| 2026-05-06 13:37 | 38.55739 | 23.53911 | 40045 ft | 433 kts | 323° |
| 2026-05-06 13:38 | 38.60637 | 23.49488 | 40039 ft | 433 kts | 323° |
| 2026-05-06 13:38 | 38.65564 | 23.45032 | 40037 ft | 433 kts | 323° |
| 2026-05-06 13:39 | 38.70496 | 23.40563 | 40041 ft | 434 kts | 323° |
| 2026-05-06 13:39 | 38.75428 | 23.36087 | 40033 ft | 434 kts | 323° |
| 2026-05-06 13:40 | 38.80327 | 23.31634 | 40039 ft | 434 kts | 323° |
| 2026-05-06 13:40 | 38.85248 | 23.27152 | 40039 ft | 434 kts | 323° |
| 2026-05-06 13:41 | 38.90178 | 23.22655 | 40040 ft | 434 kts | 323° |
| 2026-05-06 13:41 | 38.95079 | 23.18177 | 40039 ft | 434 kts | 323° |
| 2026-05-06 13:42 | 39.00004 | 23.13668 | 40041 ft | 434 kts | 323° |
| 2026-05-06 13:42 | 39.04924 | 23.09157 | 40034 ft | 434 kts | 323° |
| 2026-05-06 13:43 | 39.09858 | 23.04623 | 40033 ft | 436 kts | 323° |
| 2026-05-06 13:43 | 39.14767 | 23.00106 | 40027 ft | 436 kts | 323° |
| 2026-05-06 13:44 | 39.19712 | 22.95548 | 40022 ft | 436 kts | 323° |
| 2026-05-06 13:44 | 39.24616 | 22.91019 | 40029 ft | 436 kts | 323° |
| 2026-05-06 13:45 | 39.29558 | 22.86447 | 40020 ft | 436 kts | 323° |
| 2026-05-06 13:45 | 39.36950 | 22.79594 | 40025 ft | 435 kts | 322° |
| 2026-05-06 13:46 | 39.41853 | 22.75037 | 40035 ft | 436 kts | 322° |
| 2026-05-06 13:46 | 39.46794 | 22.70438 | 40026 ft | 437 kts | 322° |
| 2026-05-06 13:47 | 39.51707 | 22.65856 | 40029 ft | 437 kts | 322° |
| 2026-05-06 13:47 | 39.56647 | 22.61241 | 40026 ft | 437 kts | 322° |
| 2026-05-06 13:48 | 39.61588 | 22.56617 | 40021 ft | 437 kts | 322° |
| 2026-05-06 13:48 | 39.66501 | 22.52011 | 40020 ft | 437 kts | 322° |
| 2026-05-06 13:49 | 39.71436 | 22.47376 | 40023 ft | 437 kts | 322° |
| 2026-05-06 13:49 | 39.76344 | 22.42758 | 40031 ft | 438 kts | 322° |
| 2026-05-06 13:50 | 39.81294 | 22.38091 | 40026 ft | 438 kts | 322° |
| 2026-05-06 13:50 | 39.86242 | 22.33420 | 40023 ft | 438 kts | 322° |
| 2026-05-06 13:51 | 39.91151 | 22.28776 | 40032 ft | 438 kts | 322° |
| 2026-05-06 13:51 | 39.96085 | 22.24100 | 40029 ft | 438 kts | 322° |
| 2026-05-06 13:52 | 40.00992 | 22.19440 | 40029 ft | 438 kts | 322° |
| 2026-05-06 13:52 | 40.05933 | 22.14739 | 40028 ft | 438 kts | 322° |
| 2026-05-06 13:53 | 40.10836 | 22.10066 | 40045 ft | 439 kts | 321° |
| 2026-05-06 13:53 | 40.15781 | 22.05344 | 40055 ft | 440 kts | 321° |
| 2026-05-06 13:54 | 40.20726 | 22.00614 | 40064 ft | 440 kts | 321° |
| 2026-05-06 13:54 | 40.25644 | 21.95902 | 40075 ft | 440 kts | 321° |
| 2026-05-06 13:55 | 40.30594 | 21.91151 | 40075 ft | 440 kts | 321° |
| 2026-05-06 13:55 | 40.35534 | 21.86399 | 40076 ft | 439 kts | 321° |
| 2026-05-06 13:56 | 40.40461 | 21.81651 | 40070 ft | 440 kts | 321° |
| 2026-05-06 13:56 | 40.45365 | 21.76917 | 40061 ft | 440 kts | 321° |
| 2026-05-06 13:57 | 40.50314 | 21.72131 | 40053 ft | 440 kts | 321° |
| 2026-05-06 13:57 | 40.55233 | 21.67364 | 40043 ft | 440 kts | 321° |
| 2026-05-06 13:58 | 40.60177 | 21.62564 | 40036 ft | 441 kts | 321° |
| 2026-05-06 13:58 | 40.65089 | 21.57786 | 40033 ft | 441 kts | 321° |
| 2026-05-06 13:59 | 40.69195 | 21.53786 | 40036 ft | 441 kts | 321° |
| 2026-05-06 13:59 | 40.74136 | 21.48964 | 40040 ft | 441 kts | 321° |
| 2026-05-06 14:00 | 40.79041 | 21.44168 | 40040 ft | 440 kts | 321° |
| 2026-05-06 14:00 | 40.83968 | 21.39341 | 40050 ft | 440 kts | 321° |
| 2026-05-06 14:01 | 40.88853 | 21.34515 | 40048 ft | 440 kts | 320° |
| 2026-05-06 14:01 | 40.93702 | 21.29554 | 40047 ft | 440 kts | 320° |
| 2026-05-06 14:02 | 40.98530 | 21.24557 | 40054 ft | 440 kts | 319° |
| 2026-05-06 14:02 | 41.03332 | 21.19586 | 40063 ft | 440 kts | 320° |
| 2026-05-06 14:03 | 41.08169 | 21.14583 | 40056 ft | 440 kts | 320° |
| 2026-05-06 14:03 | 41.12984 | 21.09600 | 40069 ft | 440 kts | 319° |
| 2026-05-06 14:04 | 41.17793 | 21.04612 | 40070 ft | 441 kts | 319° |
| 2026-05-06 14:04 | 41.22628 | 20.99588 | 40077 ft | 440 kts | 319° |
| 2026-05-06 14:05 | 41.27465 | 20.94551 | 40075 ft | 440 kts | 319° |
| 2026-05-06 14:05 | 41.32294 | 20.89513 | 40068 ft | 441 kts | 319° |
| 2026-05-06 14:06 | 41.37099 | 20.84490 | 40070 ft | 441 kts | 319° |
| 2026-05-06 14:06 | 41.41939 | 20.79421 | 40070 ft | 441 kts | 319° |
| 2026-05-06 14:07 | 41.46773 | 20.74348 | 40070 ft | 442 kts | 319° |
| 2026-05-06 14:07 | 41.51579 | 20.69296 | 40080 ft | 442 kts | 319° |
| 2026-05-06 14:08 | 41.56425 | 20.64191 | 40075 ft | 442 kts | 319° |
| 2026-05-06 14:08 | 41.61230 | 20.59118 | 40068 ft | 442 kts | 319° |
| 2026-05-06 14:09 | 41.66067 | 20.54003 | 40083 ft | 442 kts | 319° |
| 2026-05-06 14:09 | 41.70976 | 20.49003 | 40084 ft | 443 kts | 320° |
| 2026-05-06 14:10 | 41.75916 | 20.44139 | 40093 ft | 443 kts | 320° |
| 2026-05-06 14:10 | 41.80897 | 20.39234 | 40081 ft | 444 kts | 320° |
| 2026-05-06 14:11 | 41.85841 | 20.34334 | 40094 ft | 444 kts | 320° |
| 2026-05-06 14:11 | 41.90804 | 20.29390 | 40088 ft | 444 kts | 320° |
| 2026-05-06 14:12 | 41.95754 | 20.24447 | 40095 ft | 444 kts | 320° |
| 2026-05-06 14:12 | 42.00712 | 20.19488 | 40079 ft | 443 kts | 320° |
| 2026-05-06 14:13 | 42.05674 | 20.14514 | 40079 ft | 444 kts | 320° |
| 2026-05-06 14:13 | 42.10592 | 20.09575 | 40080 ft | 444 kts | 320° |
| 2026-05-06 14:14 | 42.15547 | 20.04590 | 40081 ft | 444 kts | 320° |
| 2026-05-06 14:14 | 42.20503 | 19.99593 | 40080 ft | 444 kts | 320° |
| 2026-05-06 14:15 | 42.25451 | 19.94594 | 40077 ft | 444 kts | 320° |
| 2026-05-06 14:15 | 42.30401 | 19.89584 | 40080 ft | 444 kts | 320° |
| 2026-05-06 14:16 | 42.35323 | 19.84590 | 40078 ft | 444 kts | 320° |
| 2026-05-06 14:16 | 42.40248 | 19.79585 | 40081 ft | 444 kts | 319° |
| 2026-05-06 14:17 | 42.45201 | 19.74540 | 40071 ft | 445 kts | 320° |
| 2026-05-06 14:17 | 42.50158 | 19.69482 | 40072 ft | 445 kts | 320° |
| 2026-05-06 14:18 | 42.55079 | 19.64450 | 40070 ft | 445 kts | 320° |
| 2026-05-06 14:18 | 42.60032 | 19.59375 | 40065 ft | 446 kts | 320° |
| 2026-05-06 14:19 | 42.64985 | 19.54291 | 40064 ft | 446 kts | 320° |
| 2026-05-06 14:19 | 42.69934 | 19.49199 | 40059 ft | 446 kts | 320° |
| 2026-05-06 14:20 | 42.74851 | 19.44131 | 40070 ft | 446 kts | 319° |
| 2026-05-06 14:20 | 42.79801 | 19.39016 | 40056 ft | 447 kts | 319° |
| 2026-05-06 14:21 | 42.84761 | 19.33880 | 40051 ft | 447 kts | 319° |
| 2026-05-06 14:21 | 42.89720 | 19.28737 | 40044 ft | 447 kts | 319° |
| 2026-05-06 14:22 | 42.94649 | 19.23614 | 40048 ft | 447 kts | 319° |
| 2026-05-06 14:22 | 42.99604 | 19.18453 | 40040 ft | 447 kts | 319° |
| 2026-05-06 14:23 | 43.04526 | 19.13313 | 40038 ft | 447 kts | 319° |
| 2026-05-06 14:23 | 43.09467 | 19.08145 | 40026 ft | 447 kts | 319° |
| 2026-05-06 14:24 | 43.14417 | 19.02957 | 40029 ft | 448 kts | 319° |
| 2026-05-06 14:24 | 43.19346 | 18.97780 | 40016 ft | 448 kts | 319° |
| 2026-05-06 14:25 | 43.24303 | 18.92562 | 40017 ft | 448 kts | 319° |
| 2026-05-06 14:25 | 43.29255 | 18.87340 | 40008 ft | 448 kts | 319° |
| 2026-05-06 14:26 | 43.34174 | 18.82141 | 40006 ft | 448 kts | 319° |
| 2026-05-06 14:26 | 43.39120 | 18.76902 | 40012 ft | 448 kts | 319° |
| 2026-05-06 14:27 | 43.44035 | 18.71684 | 40017 ft | 449 kts | 319° |
| 2026-05-06 14:27 | 43.48991 | 18.66412 | 40003 ft | 449 kts | 319° |
| 2026-05-06 14:28 | 43.53945 | 18.61132 | 39995 ft | 449 kts | 319° |
| 2026-05-06 14:28 | 43.58870 | 18.55872 | 39997 ft | 449 kts | 319° |
| 2026-05-06 14:29 | 43.63821 | 18.50571 | 39981 ft | 450 kts | 318° |
| 2026-05-06 14:29 | 43.68744 | 18.45288 | 39977 ft | 451 kts | 318° |
| 2026-05-06 14:30 | 43.73710 | 18.39950 | 39968 ft | 450 kts | 318° |
| 2026-05-06 14:30 | 43.78655 | 18.34622 | 39965 ft | 450 kts | 318° |
| 2026-05-06 14:31 | 43.83572 | 18.29313 | 39966 ft | 450 kts | 318° |
| 2026-05-06 14:31 | 43.88526 | 18.23953 | 39967 ft | 450 kts | 318° |
| 2026-05-06 14:32 | 43.93441 | 18.18622 | 39956 ft | 450 kts | 318° |
| 2026-05-06 14:32 | 43.98378 | 18.13257 | 39972 ft | 450 kts | 318° |
| 2026-05-06 14:33 | 44.03283 | 18.07914 | 39950 ft | 450 kts | 318° |
| 2026-05-06 14:33 | 44.08221 | 18.02524 | 39945 ft | 451 kts | 318° |
| 2026-05-06 14:34 | 44.13136 | 17.97147 | 39951 ft | 452 kts | 318° |
| 2026-05-06 14:34 | 44.18093 | 17.91714 | 39940 ft | 452 kts | 318° |
| 2026-05-06 14:35 | 44.23019 | 17.86303 | 39931 ft | 452 kts | 317° |
| 2026-05-06 14:35 | 44.27965 | 17.80857 | 39934 ft | 452 kts | 317° |
| 2026-05-06 14:36 | 44.32886 | 17.75427 | 39923 ft | 453 kts | 317° |
| 2026-05-06 14:36 | 44.37845 | 17.69942 | 39928 ft | 454 kts | 317° |
| 2026-05-06 14:37 | 44.42804 | 17.64445 | 39930 ft | 454 kts | 317° |
| 2026-05-06 14:37 | 44.47726 | 17.58977 | 39925 ft | 454 kts | 317° |
| 2026-05-06 14:38 | 44.52683 | 17.53458 | 39933 ft | 454 kts | 317° |
| 2026-05-06 14:38 | 44.57611 | 17.47957 | 39923 ft | 455 kts | 317° |
| 2026-05-06 14:39 | 44.62575 | 17.42406 | 39924 ft | 455 kts | 317° |
| 2026-05-06 14:39 | 44.67538 | 17.36844 | 39908 ft | 455 kts | 317° |
| 2026-05-06 14:40 | 44.72484 | 17.31289 | 39908 ft | 455 kts | 317° |
| 2026-05-06 14:40 | 44.77398 | 17.25756 | 39909 ft | 455 kts | 316° |
| 2026-05-06 14:41 | 44.82350 | 17.20166 | 39909 ft | 456 kts | 316° |
| 2026-05-06 14:41 | 44.87310 | 17.14557 | 39917 ft | 456 kts | 316° |
| 2026-05-06 14:42 | 44.92232 | 17.08978 | 39912 ft | 456 kts | 316° |
| 2026-05-06 14:42 | 44.97180 | 17.03357 | 39926 ft | 456 kts | 316° |
| 2026-05-06 14:43 | 45.02131 | 16.97719 | 39911 ft | 456 kts | 316° |
| 2026-05-06 14:43 | 45.07044 | 16.92111 | 39912 ft | 456 kts | 316° |
| 2026-05-06 14:44 | 45.11987 | 16.86457 | 39916 ft | 456 kts | 316° |
| 2026-05-06 14:45 | 45.19360 | 16.77996 | 39916 ft | 455 kts | 316° |
| 2026-05-06 14:45 | 45.24292 | 16.72321 | 39924 ft | 456 kts | 316° |
| 2026-05-06 14:46 | 45.29235 | 16.66620 | 39920 ft | 457 kts | 316° |
| 2026-05-06 14:46 | 45.34135 | 16.60955 | 39923 ft | 457 kts | 316° |
| 2026-05-06 14:47 | 45.39074 | 16.55234 | 39917 ft | 456 kts | 315° |
| 2026-05-06 14:47 | 45.44005 | 16.49508 | 39926 ft | 457 kts | 316° |
| 2026-05-06 14:48 | 45.48913 | 16.43793 | 39922 ft | 458 kts | 316° |
| 2026-05-06 14:48 | 45.53854 | 16.38028 | 39922 ft | 458 kts | 315° |
| 2026-05-06 14:49 | 45.57957 | 16.33232 | 39921 ft | 458 kts | 315° |
| 2026-05-06 14:49 | 45.62898 | 16.27441 | 39923 ft | 458 kts | 315° |
| 2026-05-06 14:50 | 45.67806 | 16.21677 | 39928 ft | 458 kts | 316° |
| 2026-05-06 14:50 | 45.72716 | 16.15896 | 39911 ft | 459 kts | 315° |
| 2026-05-06 14:51 | 45.77650 | 16.10074 | 39910 ft | 459 kts | 315° |
| 2026-05-06 14:51 | 45.82587 | 16.04236 | 39913 ft | 459 kts | 315° |
| 2026-05-06 14:52 | 45.87487 | 15.98426 | 39912 ft | 459 kts | 315° |
| 2026-05-06 14:52 | 45.92411 | 15.92572 | 39917 ft | 459 kts | 315° |
| 2026-05-06 14:53 | 45.97332 | 15.86710 | 39920 ft | 459 kts | 315° |
| 2026-05-06 14:53 | 46.02223 | 15.80870 | 39913 ft | 459 kts | 315° |
| 2026-05-06 14:54 | 46.07146 | 15.74978 | 39911 ft | 459 kts | 315° |
| 2026-05-06 14:54 | 46.12062 | 15.69079 | 39915 ft | 459 kts | 315° |
| 2026-05-06 14:55 | 46.16942 | 15.63209 | 39916 ft | 459 kts | 315° |
| 2026-05-06 14:55 | 46.21855 | 15.57285 | 39914 ft | 459 kts | 315° |
| 2026-05-06 14:56 | 46.26735 | 15.51387 | 39908 ft | 459 kts | 315° |
| 2026-05-06 14:56 | 46.31635 | 15.45452 | 39903 ft | 459 kts | 315° |
| 2026-05-06 14:57 | 46.36516 | 15.39525 | 39915 ft | 459 kts | 315° |
| 2026-05-06 14:57 | 46.41425 | 15.33552 | 39897 ft | 460 kts | 315° |
| 2026-05-06 14:58 | 46.46305 | 15.27598 | 39885 ft | 460 kts | 315° |
| 2026-05-06 14:58 | 46.51215 | 15.21590 | 39891 ft | 461 kts | 315° |
| 2026-05-06 14:59 | 46.56094 | 15.15606 | 39882 ft | 461 kts | 315° |
| 2026-05-06 14:59 | 46.61004 | 15.09570 | 39883 ft | 460 kts | 315° |
| 2026-05-06 15:00 | 46.65899 | 15.03539 | 39876 ft | 460 kts | 315° |
| 2026-05-06 15:00 | 46.70789 | 14.97497 | 39873 ft | 461 kts | 315° |
| 2026-05-06 15:01 | 46.75653 | 14.91474 | 39866 ft | 461 kts | 315° |
| 2026-05-06 15:01 | 46.80546 | 14.85400 | 39863 ft | 460 kts | 315° |
| 2026-05-06 15:02 | 46.85398 | 14.79362 | 39871 ft | 461 kts | 315° |
| 2026-05-06 15:02 | 46.90287 | 14.73262 | 39868 ft | 462 kts | 315° |
| 2026-05-06 15:03 | 46.95183 | 14.67136 | 39867 ft | 461 kts | 314° |
| 2026-05-06 15:03 | 47.00066 | 14.61015 | 39858 ft | 462 kts | 314° |
| 2026-05-06 15:04 | 47.04924 | 14.54910 | 39863 ft | 462 kts | 314° |
| 2026-05-06 15:04 | 47.09808 | 14.48757 | 39865 ft | 463 kts | 314° |
| 2026-05-06 15:05 | 47.14677 | 14.42604 | 39854 ft | 464 kts | 314° |
| 2026-05-06 15:05 | 47.19583 | 14.36391 | 39855 ft | 465 kts | 314° |
| 2026-05-06 15:06 | 47.24492 | 14.30159 | 39843 ft | 465 kts | 314° |
| 2026-05-06 15:06 | 47.29362 | 14.23961 | 39842 ft | 465 kts | 314° |
| 2026-05-06 15:07 | 47.34271 | 14.17697 | 39832 ft | 464 kts | 314° |
| 2026-05-06 15:07 | 47.39151 | 14.11455 | 39825 ft | 463 kts | 314° |
| 2026-05-06 15:08 | 47.44001 | 14.05233 | 39808 ft | 464 kts | 314° |
| 2026-05-06 15:08 | 47.48879 | 13.98958 | 39801 ft | 464 kts | 314° |
| 2026-05-06 15:09 | 47.53725 | 13.92713 | 39780 ft | 464 kts | 314° |
| 2026-05-06 15:09 | 47.58601 | 13.86412 | 39774 ft | 465 kts | 313° |
| 2026-05-06 15:10 | 47.63484 | 13.80084 | 39756 ft | 466 kts | 313° |
| 2026-05-06 15:10 | 47.68347 | 13.73766 | 39739 ft | 467 kts | 313° |
| 2026-05-06 15:11 | 47.73235 | 13.67401 | 39730 ft | 467 kts | 313° |
| 2026-05-06 15:11 | 47.78126 | 13.61015 | 39723 ft | 467 kts | 313° |
| 2026-05-06 15:12 | 47.83018 | 13.54609 | 39709 ft | 469 kts | 313° |
| 2026-05-06 15:12 | 47.87891 | 13.48210 | 39712 ft | 470 kts | 314° |
| 2026-05-06 15:13 | 47.92808 | 13.41736 | 39705 ft | 472 kts | 313° |
| 2026-05-06 15:13 | 47.97727 | 13.35247 | 39700 ft | 472 kts | 313° |
| 2026-05-06 15:14 | 48.02641 | 13.28747 | 39699 ft | 472 kts | 313° |
| 2026-05-06 15:14 | 48.07532 | 13.22258 | 39707 ft | 472 kts | 313° |
| 2026-05-06 15:15 | 48.12457 | 13.15706 | 39698 ft | 473 kts | 313° |
| 2026-05-06 15:15 | 48.17377 | 13.09145 | 39705 ft | 473 kts | 313° |
| 2026-05-06 15:16 | 48.22261 | 13.02616 | 39709 ft | 473 kts | 313° |
| 2026-05-06 15:16 | 48.27305 | 12.96226 | 39707 ft | 475 kts | 315° |
| 2026-05-06 15:17 | 48.32461 | 12.89982 | 39710 ft | 476 kts | 316° |
| 2026-05-06 15:17 | 48.37610 | 12.83742 | 39705 ft | 476 kts | 316° |
| 2026-05-06 15:18 | 48.42750 | 12.77455 | 39722 ft | 474 kts | 316° |
| 2026-05-06 15:18 | 48.47823 | 12.71207 | 39713 ft | 474 kts | 316° |
| 2026-05-06 15:19 | 48.52935 | 12.64888 | 39713 ft | 474 kts | 316° |
| 2026-05-06 15:19 | 48.58040 | 12.58564 | 39731 ft | 474 kts | 316° |
| 2026-05-06 15:20 | 48.63107 | 12.52271 | 39733 ft | 474 kts | 316° |
| 2026-05-06 15:20 | 48.68199 | 12.45932 | 39724 ft | 473 kts | 316° |
| 2026-05-06 15:21 | 48.73260 | 12.39613 | 39727 ft | 473 kts | 316° |
| 2026-05-06 15:21 | 48.78335 | 12.33259 | 39731 ft | 473 kts | 315° |
| 2026-05-06 15:22 | 48.83415 | 12.26881 | 39737 ft | 473 kts | 316° |
| 2026-05-06 15:22 | 48.88471 | 12.20516 | 39745 ft | 474 kts | 315° |
| 2026-05-06 15:23 | 48.93558 | 12.14094 | 39739 ft | 474 kts | 315° |
| 2026-05-06 15:23 | 48.98618 | 12.07691 | 39747 ft | 474 kts | 315° |
| 2026-05-06 15:24 | 49.03697 | 12.01246 | 39753 ft | 474 kts | 315° |
| 2026-05-06 15:24 | 49.08745 | 11.94821 | 39765 ft | 474 kts | 315° |
| 2026-05-06 15:25 | 49.13821 | 11.88344 | 39770 ft | 474 kts | 315° |
| 2026-05-06 15:25 | 49.18865 | 11.81889 | 39758 ft | 475 kts | 315° |
| 2026-05-06 15:26 | 49.23933 | 11.75387 | 39762 ft | 475 kts | 315° |
| 2026-05-06 15:26 | 49.29003 | 11.68863 | 39764 ft | 475 kts | 315° |
| 2026-05-06 15:27 | 49.34031 | 11.62375 | 39763 ft | 475 kts | 315° |
| 2026-05-06 15:27 | 49.39102 | 11.55812 | 39775 ft | 476 kts | 315° |
| 2026-05-06 15:28 | 49.44176 | 11.49229 | 39766 ft | 477 kts | 315° |
| 2026-05-06 15:28 | 49.49221 | 11.42665 | 39765 ft | 478 kts | 315° |
| 2026-05-06 15:29 | 49.54300 | 11.36038 | 39768 ft | 478 kts | 315° |
| 2026-05-06 15:29 | 49.59340 | 11.29444 | 39768 ft | 477 kts | 315° |
| 2026-05-06 15:30 | 49.64412 | 11.22788 | 39773 ft | 479 kts | 315° |
| 2026-05-06 15:30 | 49.69494 | 11.16100 | 39770 ft | 478 kts | 315° |
| 2026-05-06 15:31 | 49.74552 | 11.09428 | 39770 ft | 477 kts | 315° |
| 2026-05-06 15:31 | 49.79565 | 11.02794 | 39771 ft | 477 kts | 315° |
| 2026-05-06 15:32 | 49.87121 | 10.92756 | 39781 ft | 477 kts | 315° |
| 2026-05-06 15:32 | 49.92166 | 10.86034 | 39766 ft | 476 kts | 315° |
| 2026-05-06 15:33 | 49.97161 | 10.79356 | 39765 ft | 476 kts | 315° |
| 2026-05-06 15:33 | 50.02191 | 10.72612 | 39762 ft | 476 kts | 315° |
| 2026-05-06 15:34 | 50.07175 | 10.65912 | 39764 ft | 476 kts | 315° |
| 2026-05-06 15:34 | 50.12183 | 10.59161 | 39758 ft | 476 kts | 315° |
| 2026-05-06 15:35 | 50.17160 | 10.52432 | 39770 ft | 476 kts | 316° |
| 2026-05-06 15:35 | 50.22188 | 10.45613 | 39752 ft | 478 kts | 316° |
| 2026-05-06 15:36 | 50.27184 | 10.38818 | 39751 ft | 478 kts | 316° |
| 2026-05-06 15:36 | 50.32218 | 10.31954 | 39752 ft | 478 kts | 316° |
| 2026-05-06 15:37 | 50.36930 | 10.24630 | 39747 ft | 475 kts | 309° |
| 2026-05-06 15:37 | 50.41274 | 10.16869 | 39748 ft | 475 kts | 307° |
| 2026-05-06 15:38 | 50.44848 | 10.10307 | 39753 ft | 474 kts | 307° |
| 2026-05-06 15:38 | 50.49819 | 10.01126 | 39747 ft | 474 kts | 307° |
| 2026-05-06 15:39 | 50.53373 | 9.94561 | 39748 ft | 474 kts | 307° |
| 2026-05-06 15:39 | 50.57653 | 9.86649 | 39749 ft | 474 kts | 307° |
| 2026-05-06 15:40 | 50.61926 | 9.78729 | 39756 ft | 474 kts | 307° |
| 2026-05-06 15:40 | 50.66178 | 9.70823 | 39755 ft | 475 kts | 306° |
| 2026-05-06 15:41 | 50.70450 | 9.62856 | 39751 ft | 475 kts | 306° |
| 2026-05-06 15:41 | 50.74686 | 9.54931 | 39757 ft | 475 kts | 306° |
| 2026-05-06 15:42 | 50.78941 | 9.46945 | 39761 ft | 475 kts | 306° |
| 2026-05-06 15:42 | 50.83191 | 9.38944 | 39777 ft | 475 kts | 306° |
| 2026-05-06 15:43 | 50.87438 | 9.30923 | 39780 ft | 474 kts | 306° |
| 2026-05-06 15:43 | 50.91649 | 9.22947 | 39788 ft | 474 kts | 306° |
| 2026-05-06 15:44 | 50.95882 | 9.14903 | 39788 ft | 474 kts | 306° |
| 2026-05-06 15:44 | 51.00110 | 9.06842 | 39793 ft | 474 kts | 306° |
| 2026-05-06 15:45 | 51.04293 | 8.98842 | 39788 ft | 474 kts | 306° |
| 2026-05-06 15:45 | 51.08510 | 8.90754 | 39784 ft | 474 kts | 306° |
| 2026-05-06 15:46 | 51.12717 | 8.82664 | 39784 ft | 474 kts | 307° |
| 2026-05-06 15:46 | 51.17217 | 8.75018 | 39780 ft | 476 kts | 311° |
| 2026-05-06 15:47 | 51.21859 | 8.67434 | 39790 ft | 476 kts | 310° |
| 2026-05-06 15:47 | 51.26447 | 8.59891 | 39814 ft | 476 kts | 310° |
| 2026-05-06 15:48 | 51.31063 | 8.52264 | 39797 ft | 477 kts | 310° |
| 2026-05-06 15:48 | 51.35679 | 8.44608 | 39815 ft | 477 kts | 310° |
| 2026-05-06 15:49 | 51.40291 | 8.36936 | 39812 ft | 477 kts | 310° |
| 2026-05-06 15:49 | 51.44866 | 8.29300 | 39814 ft | 477 kts | 310° |
| 2026-05-06 15:50 | 51.49459 | 8.21611 | 39819 ft | 477 kts | 310° |
| 2026-05-06 15:50 | 51.54054 | 8.13895 | 39831 ft | 476 kts | 310° |
| 2026-05-06 15:51 | 51.58612 | 8.06215 | 39838 ft | 474 kts | 310° |
| 2026-05-06 15:51 | 51.63140 | 7.98562 | 39838 ft | 474 kts | 310° |
| 2026-05-06 15:52 | 51.67691 | 7.90848 | 39844 ft | 474 kts | 310° |
| 2026-05-06 15:52 | 51.72237 | 7.83118 | 39846 ft | 474 kts | 310° |
| 2026-05-06 15:53 | 51.76749 | 7.75421 | 39854 ft | 474 kts | 310° |
| 2026-05-06 15:53 | 51.81288 | 7.67655 | 39848 ft | 475 kts | 310° |
| 2026-05-06 15:54 | 51.85818 | 7.59879 | 39849 ft | 474 kts | 310° |
| 2026-05-06 15:54 | 51.90341 | 7.52090 | 39848 ft | 474 kts | 310° |
| 2026-05-06 15:55 | 51.94831 | 7.44336 | 39848 ft | 474 kts | 310° |
| 2026-05-06 15:55 | 51.99347 | 7.36510 | 39859 ft | 474 kts | 310° |
| 2026-05-06 15:56 | 52.03825 | 7.28727 | 39858 ft | 473 kts | 310° |
| 2026-05-06 15:56 | 52.08319 | 7.20891 | 39862 ft | 472 kts | 310° |
| 2026-05-06 15:57 | 52.12771 | 7.13102 | 39863 ft | 471 kts | 310° |
| 2026-05-06 15:57 | 52.17234 | 7.05270 | 39871 ft | 471 kts | 309° |
| 2026-05-06 15:58 | 52.21677 | 6.97390 | 39869 ft | 470 kts | 308° |
| 2026-05-06 15:58 | 52.25840 | 6.89172 | 39877 ft | 469 kts | 306° |
| 2026-05-06 15:59 | 52.29927 | 6.80955 | 39880 ft | 468 kts | 306° |
| 2026-05-06 15:59 | 52.34040 | 6.72679 | 39873 ft | 468 kts | 306° |
| 2026-05-06 16:00 | 52.38120 | 6.64454 | 39886 ft | 467 kts | 306° |
| 2026-05-06 16:00 | 52.42218 | 6.56168 | 39878 ft | 467 kts | 306° |
| 2026-05-06 16:01 | 52.46108 | 6.47745 | 39878 ft | 462 kts | 294° |
| 2026-05-06 16:01 | 52.47211 | 6.42861 | 39882 ft | 454 kts | 278° |
| 2026-05-06 16:01 | 52.47582 | 6.37723 | 39888 ft | 452 kts | 272° |
| 2026-05-06 16:02 | 52.47945 | 6.27394 | 39884 ft | 454 kts | 271° |
| 2026-05-06 16:02 | 52.48377 | 6.17097 | 39882 ft | 454 kts | 272° |
| 2026-05-06 16:03 | 52.48854 | 6.06723 | 39882 ft | 454 kts | 272° |
| 2026-05-06 16:03 | 52.49336 | 5.96430 | 39892 ft | 455 kts | 272° |
| 2026-05-06 16:04 | 52.49817 | 5.86057 | 39885 ft | 455 kts | 272° |
| 2026-05-06 16:04 | 52.50291 | 5.75677 | 39882 ft | 455 kts | 272° |
| 2026-05-06 16:05 | 52.50750 | 5.65476 | 39749 ft | 439 kts | 272° |
| 2026-05-06 16:05 | 52.50970 | 5.60559 | 39405 ft | 425 kts | 272° |
| 2026-05-06 16:05 | 52.51211 | 5.55748 | 38637 ft | 422 kts | 275° |
| 2026-05-06 16:06 | 52.51757 | 5.50965 | 37215 ft | 431 kts | 283° |
| 2026-05-06 16:06 | 52.52808 | 5.46282 | 35785 ft | 442 kts | 294° |
| 2026-05-06 16:06 | 52.54352 | 5.41877 | 34475 ft | 448 kts | 303° |
| 2026-05-06 16:06 | 52.56372 | 5.37929 | 33066 ft | 453 kts | 313° |
| 2026-05-06 16:07 | 52.58772 | 5.34610 | 31631 ft | 456 kts | 323° |
| 2026-05-06 16:07 | 52.61499 | 5.31887 | 30286 ft | 457 kts | 327° |
| 2026-05-06 16:07 | 52.64226 | 5.29295 | 29033 ft | 450 kts | 332° |
| 2026-05-06 16:07 | 52.67176 | 5.27529 | 27666 ft | 450 kts | 342° |
| 2026-05-06 16:08 | 52.70211 | 5.26663 | 26474 ft | 447 kts | 353° |
| 2026-05-06 16:08 | 52.73300 | 5.26672 | 25398 ft | 440 kts | 3° |
| 2026-05-06 16:08 | 52.76301 | 5.27526 | 24289 ft | 436 kts | 12° |
| 2026-05-06 16:08 | 52.79143 | 5.29201 | 23177 ft | 431 kts | 24° |
| 2026-05-06 16:09 | 52.81733 | 5.31616 | 21967 ft | 425 kts | 32° |
| 2026-05-06 16:09 | 52.84017 | 5.34681 | 20781 ft | 421 kts | 43° |
| 2026-05-06 16:09 | 52.85930 | 5.38290 | 19715 ft | 412 kts | 52° |
| 2026-05-06 16:09 | 52.87444 | 5.42297 | 18561 ft | 409 kts | 62° |
| 2026-05-06 16:10 | 52.88522 | 5.46591 | 17474 ft | 400 kts | 71° |
| 2026-05-06 16:10 | 52.89173 | 5.51004 | 16180 ft | 398 kts | 81° |
| 2026-05-06 16:10 | 52.89375 | 5.55508 | 15337 ft | 384 kts | 91° |
| 2026-05-06 16:10 | 52.89168 | 5.59784 | 14947 ft | 360 kts | 99° |
| 2026-05-06 16:11 | 52.88646 | 5.63701 | 14651 ft | 337 kts | 107° |
| 2026-05-06 16:11 | 52.87870 | 5.67273 | 14157 ft | 323 kts | 114° |
| 2026-05-06 16:11 | 52.86866 | 5.70533 | 13528 ft | 315 kts | 122° |
| 2026-05-06 16:11 | 52.85453 | 5.73289 | 12689 ft | 312 kts | 143° |
| 2026-05-06 16:12 | 52.83584 | 5.74901 | 11861 ft | 307 kts | 168° |
| 2026-05-06 16:12 | 52.81480 | 5.74997 | 11160 ft | 299 kts | 192° |
| 2026-05-06 16:12 | 52.79499 | 5.74050 | 10403 ft | 295 kts | 200° |
| 2026-05-06 16:12 | 52.77577 | 5.72865 | 9788 ft | 289 kts | 201° |
| 2026-05-06 16:13 | 52.75743 | 5.71647 | 9669 ft | 289 kts | 202° |
| 2026-05-06 16:13 | 52.73873 | 5.70398 | 9613 ft | 290 kts | 202° |
| 2026-05-06 16:13 | 52.71983 | 5.69192 | 9517 ft | 291 kts | 201° |
| 2026-05-06 16:13 | 52.70087 | 5.68025 | 9457 ft | 289 kts | 200° |
| 2026-05-06 16:14 | 52.68196 | 5.66888 | 9390 ft | 289 kts | 200° |
| 2026-05-06 16:14 | 52.66303 | 5.65765 | 9319 ft | 288 kts | 200° |
| 2026-05-06 16:14 | 52.64436 | 5.64666 | 9240 ft | 289 kts | 199° |
| 2026-05-06 16:14 | 52.62540 | 5.63556 | 9161 ft | 288 kts | 200° |
| 2026-05-06 16:15 | 52.60644 | 5.62448 | 9109 ft | 289 kts | 199° |
| 2026-05-06 16:15 | 52.58743 | 5.61340 | 9047 ft | 288 kts | 199° |
| 2026-05-06 16:15 | 52.56857 | 5.60239 | 8965 ft | 288 kts | 199° |
| 2026-05-06 16:15 | 52.54968 | 5.59138 | 8891 ft | 287 kts | 199° |
| 2026-05-06 16:16 | 52.53119 | 5.58024 | 8807 ft | 287 kts | 203° |
| 2026-05-06 16:16 | 52.51446 | 5.56251 | 8763 ft | 286 kts | 225° |
| 2026-05-06 16:16 | 52.50365 | 5.53529 | 8689 ft | 286 kts | 247° |
| 2026-05-06 16:16 | 52.49658 | 5.50474 | 8612 ft | 286 kts | 251° |
| 2026-05-06 16:17 | 52.49022 | 5.47413 | 8535 ft | 286 kts | 252° |
| 2026-05-06 16:17 | 52.48380 | 5.44319 | 8473 ft | 287 kts | 252° |
| 2026-05-06 16:17 | 52.47723 | 5.41203 | 8396 ft | 288 kts | 252° |
| 2026-05-06 16:17 | 52.47068 | 5.38129 | 8334 ft | 289 kts | 252° |
| 2026-05-06 16:18 | 52.46400 | 5.35023 | 8254 ft | 289 kts | 252° |
| 2026-05-06 16:18 | 52.45728 | 5.31908 | 8197 ft | 288 kts | 252° |
| 2026-05-06 16:18 | 52.45054 | 5.28800 | 8111 ft | 288 kts | 251° |
| 2026-05-06 16:18 | 52.44385 | 5.25716 | 8036 ft | 286 kts | 251° |
| 2026-05-06 16:19 | 52.43714 | 5.22633 | 7966 ft | 288 kts | 251° |
| 2026-05-06 16:19 | 52.43048 | 5.19577 | 7913 ft | 288 kts | 252° |
| 2026-05-06 16:19 | 52.42369 | 5.16468 | 7824 ft | 289 kts | 252° |
| 2026-05-06 16:19 | 52.41690 | 5.13364 | 7754 ft | 288 kts | 252° |
| 2026-05-06 16:20 | 52.41011 | 5.10265 | 7688 ft | 287 kts | 251° |
| 2026-05-06 16:20 | 52.40347 | 5.07236 | 7611 ft | 285 kts | 251° |
| 2026-05-06 16:20 | 52.39674 | 5.04174 | 7548 ft | 285 kts | 251° |
| 2026-05-06 16:20 | 52.38999 | 5.01107 | 7486 ft | 286 kts | 252° |
| 2026-05-06 16:21 | 52.38322 | 4.98032 | 7405 ft | 287 kts | 251° |
| 2026-05-06 16:21 | 52.37645 | 4.94961 | 7331 ft | 285 kts | 252° |
| 2026-05-06 16:21 | 52.36972 | 4.91913 | 7266 ft | 283 kts | 251° |
| 2026-05-06 16:21 | 52.36303 | 4.88892 | 7190 ft | 282 kts | 251° |
| 2026-05-06 16:22 | 52.35641 | 4.85911 | 7127 ft | 283 kts | 252° |
| 2026-05-06 16:22 | 52.34970 | 4.82882 | 7060 ft | 283 kts | 251° |
| 2026-05-06 16:22 | 52.34307 | 4.79901 | 6954 ft | 273 kts | 251° |
| 2026-05-06 16:22 | 52.33678 | 4.77049 | 6898 ft | 259 kts | 254° |
| 2026-05-06 16:23 | 52.33399 | 4.74230 | 6762 ft | 249 kts | 274° |
| 2026-05-06 16:23 | 52.33654 | 4.71428 | 6447 ft | 248 kts | 284° |
| 2026-05-06 16:23 | 52.34046 | 4.68688 | 6117 ft | 248 kts | 285° |
| 2026-05-06 16:23 | 52.34425 | 4.65976 | 5822 ft | 247 kts | 281° |
| 2026-05-06 16:24 | 52.34368 | 4.63170 | 5480 ft | 251 kts | 253° |
| 2026-05-06 16:24 | 52.33620 | 4.60592 | 5194 ft | 251 kts | 240° |
| 2026-05-06 16:24 | 52.32691 | 4.58167 | 4895 ft | 252 kts | 238° |
| 2026-05-06 16:24 | 52.31735 | 4.55754 | 4581 ft | 253 kts | 238° |
| 2026-05-06 16:25 | 52.30783 | 4.53339 | 4362 ft | 250 kts | 238° |
| 2026-05-06 16:25 | 52.29845 | 4.50945 | 4086 ft | 250 kts | 238° |
| 2026-05-06 16:25 | 52.28909 | 4.48544 | 3783 ft | 250 kts | 238° |
| 2026-05-06 16:25 | 52.27965 | 4.46151 | 3480 ft | 252 kts | 235° |
| 2026-05-06 16:26 | 52.26741 | 4.44216 | 3204 ft | 248 kts | 207° |
| 2026-05-06 16:26 | 52.25115 | 4.43612 | 2906 ft | 238 kts | 170° |
| 2026-05-06 16:26 | 52.23594 | 4.44459 | 2633 ft | 229 kts | 146° |
| 2026-05-06 16:26 | 52.22287 | 4.45920 | 2375 ft | 225 kts | 130° |
| 2026-05-06 16:27 | 52.21434 | 4.47975 | 2109 ft | 216 kts | 108° |
| 2026-05-06 16:27 | 52.20980 | 4.50267 | 1996 ft | 205 kts | 90° |
| 2026-05-06 16:27 | 52.21132 | 4.52447 | 2010 ft | 187 kts | 72° |
| 2026-05-06 16:27 | 52.21531 | 4.54342 | 2017 ft | 167 kts | 63° |
| 2026-05-06 16:28 | 52.22055 | 4.55873 | 2027 ft | 142 kts | 57° |
| 2026-05-06 16:28 | 52.22535 | 4.57137 | 2018 ft | 123 kts | 55° |
| 2026-05-06 16:28 | 52.22982 | 4.58290 | 2013 ft | 120 kts | 56° |
| 2026-05-06 16:28 | 52.23427 | 4.59451 | 2009 ft | 121 kts | 56° |